<?xml version='1.0' encoding='UTF-8'?>
<gpx xmlns="http://www.topografix.com/GPX/1/1" creator="www.balnam.be" version="1.1" xmlns:xsi="http://www.w3.org/2001/XMLSchema-instance" xsi:schemaLocation="http://www.topografix.com/GPX/1/1 http://www.topografix.com/GPX/1/1/gpx.xsd">
<trk>
<name>hbmlg30</name>
<cmt>q</cmt>
<desc>Leugnies Sentier n°30 Preaux / Chemin de Beaumont à Reugnies</desc>
<link href="https://chemins.be/leugnies/sentier/30"/><trkseg>
<trkpt lat="50.226080" lon="4.196395"><time>2026-05-02T20:53:10Z</time></trkpt>
<trkpt lat="50.227657" lon="4.197721"><time>2026-05-02T21:03:10Z</time></trkpt>
<trkpt lat="50.228321" lon="4.198520"><time>2026-05-02T21:13:10Z</time></trkpt>
<trkpt lat="50.228919" lon="4.198524"><time>2026-05-02T21:23:10Z</time></trkpt>
<trkpt lat="50.229364" lon="4.198760"><time>2026-05-02T21:33:10Z</time></trkpt>
<trkpt lat="50.228988" lon="4.199052"><time>2026-05-02T21:43:10Z</time></trkpt>
<trkpt lat="50.228955" lon="4.199799"><time>2026-05-02T21:53:10Z</time></trkpt>
</trkseg></trk>
<trk>
<name>hbmlg30</name>
<cmt>v</cmt>
<desc>Leugnies Sentier n°30 Preaux / Chemin de Beaumont à Reugnies</desc>
<link href="https://chemins.be/leugnies/sentier/30"/><trkseg>
<trkpt lat="50.228955" lon="4.199799"><time>2026-05-02T21:53:10Z</time></trkpt>
<trkpt lat="50.229943" lon="4.200202"><time>2026-05-02T22:03:10Z</time></trkpt>
<trkpt lat="50.230464" lon="4.200760"><time>2026-05-02T22:13:10Z</time></trkpt>
</trkseg></trk>
<trk>
<name>hbmlg30</name>
<cmt>q</cmt>
<desc>Leugnies Sentier n°30 Preaux / Chemin de Beaumont à Reugnies</desc>
<link href="https://chemins.be/leugnies/sentier/30"/><trkseg>
<trkpt lat="50.230464" lon="4.200760"><time>2026-05-02T22:13:10Z</time></trkpt>
<trkpt lat="50.231957" lon="4.200056"><time>2026-05-02T22:23:10Z</time></trkpt>
<trkpt lat="50.234746" lon="4.199644"><time>2026-05-02T22:33:10Z</time></trkpt>
</trkseg></trk>
<trk>
<name>hbmlg30</name>
<cmt>r</cmt>
<desc>Leugnies Sentier n°30 Preaux / Chemin de Beaumont à Reugnies</desc>
<link href="https://chemins.be/leugnies/sentier/30"/><trkseg>
<trkpt lat="50.234746" lon="4.199644"><time>2026-05-02T22:33:10Z</time></trkpt>
<trkpt lat="50.235616" lon="4.200451"><time>2026-05-02T22:43:10Z</time></trkpt>
</trkseg></trk>
<trk>
<name>hbmlg30</name>
<cmt>q</cmt>
<desc>Leugnies Sentier n°30 Preaux / Chemin de Beaumont à Reugnies</desc>
<link href="https://chemins.be/leugnies/sentier/30"/><trkseg>
<trkpt lat="50.235616" lon="4.200451"><time>2026-05-02T22:43:10Z</time></trkpt>
<trkpt lat="50.236897" lon="4.199537"><time>2026-05-02T22:53:10Z</time></trkpt>
</trkseg></trk>
<trk>
<name>hbmlg30</name>
<cmt>v</cmt>
<desc>Leugnies Sentier n°30 Preaux / Chemin de Beaumont à Reugnies</desc>
<link href="https://chemins.be/leugnies/sentier/30"/><trkseg>
<trkpt lat="50.236897" lon="4.199537"><time>2026-05-02T22:53:10Z</time></trkpt>
<trkpt lat="50.237244" lon="4.199136"><time>2026-05-02T23:03:10Z</time></trkpt>
<trkpt lat="50.237669" lon="4.199007"><time>2026-05-02T23:13:10Z</time></trkpt>
<trkpt lat="50.238527" lon="4.198235"><time>2026-05-02T23:23:10Z</time></trkpt>
<trkpt lat="50.239172" lon="4.198632"><time>2026-05-02T23:33:10Z</time></trkpt>
<trkpt lat="50.239460" lon="4.198846"><time>2026-05-02T23:43:10Z</time></trkpt>
<trkpt lat="50.239496" lon="4.198554"><time>2026-05-02T23:53:10Z</time></trkpt>
<trkpt lat="50.239905" lon="4.198563"><time>2026-05-03T00:03:10Z</time></trkpt>
</trkseg>
</trk>
</gpx>